Time;durP1;ratioP1;P1;durP2;ratioP2;P2;SDS_P1;SDS_P2;PMS_P1;PMS_P2;Temp;Humidity;BMP_temperature;BMP_pressure;BME280_temperature;BME280_humidity;BME280_pressure;Samples;Min_cycle;Max_cycle;Signal;HPM_P1;HPM_P2
2024/03/30 00:01:05;;;;;;;1.23;0.88;;;13.50;99.90;;;;;;5027304;28;20518;-75
2024/03/30 00:03:31;;;;;;;2.28;0.80;;;13.50;99.90;;;;;;5031423;28;20470;-75
2024/03/30 00:06:01;;;;;;;1.80;0.95;;;13.50;99.90;;;;;;5030315;28;20204;-75
2024/03/30 00:08:27;;;;;;;2.25;0.80;;;13.50;99.90;;;;;;5031652;28;20021;-76
2024/03/30 00:11:03;;;;;;;1.42;0.80;;;13.40;99.90;;;;;;5031856;28;20025;-75
2024/03/30 00:13:29;;;;;;;1.20;0.90;;;13.50;99.90;;;;;;5017330;28;20045;-76
2024/03/30 00:15:55;;;;;;;0.95;0.80;;;13.50;99.90;;;;;;5030377;28;20029;-76
2024/03/30 00:18:21;;;;;;;1.20;0.88;;;13.50;99.90;;;;;;5031735;28;20029;-76
2024/03/30 00:20:47;;;;;;;1.00;0.70;;;13.50;99.90;;;;;;5031355;28;20018;-76
2024/03/30 00:23:13;;;;;;;0.80;0.77;;;13.50;99.90;;;;;;5031713;28;20360;-76
2024/03/30 00:25:39;;;;;;;1.65;0.70;;;13.60;99.90;;;;;;5031318;28;20552;-76
2024/03/30 00:28:05;;;;;;;1.33;0.63;;;13.60;99.90;;;;;;5028928;28;20057;-76
2024/03/30 00:30:36;;;;;;;2.08;0.60;;;13.50;99.90;;;;;;5020386;28;20052;-76
2024/03/30 00:33:02;;;;;;;1.38;0.90;;;13.50;99.90;;;;;;5019965;28;20087;-75
2024/03/30 00:35:28;;;;;;;0.98;0.70;;;13.50;99.90;;;;;;5031182;28;20684;-75
2024/03/30 00:37:54;;;;;;;0.63;0.47;;;13.50;99.90;;;;;;5031401;28;20114;-76
2024/03/30 00:40:21;;;;;;;0.88;0.70;;;13.30;99.90;;;;;;5030121;28;20076;-76
2024/03/30 00:42:48;;;;;;;1.13;0.70;;;13.30;99.90;;;;;;5030540;28;20394;-76
2024/03/30 00:45:13;;;;;;;1.58;0.63;;;13.40;99.90;;;;;;5031221;28;20032;-76
2024/03/30 00:47:39;;;;;;;1.30;0.90;;;13.40;99.90;;;;;;5038350;28;20128;-76
2024/03/30 00:50:06;;;;;;;1.45;0.65;;;13.30;99.90;;;;;;5035543;28;20486;-76
2024/03/30 00:52:32;;;;;;;0.93;0.77;;;13.20;99.90;;;;;;5033609;28;20060;-75
2024/03/30 00:54:57;;;;;;;1.95;0.80;;;13.20;99.90;;;;;;5035129;28;20144;-76
2024/03/30 00:57:23;;;;;;;1.08;0.70;;;13.30;99.90;;;;;;5034687;28;20021;-76
2024/03/30 00:59:50;;;;;;;0.80;0.65;;;13.30;99.90;;;;;;5032142;28;20026;-76
2024/03/30 01:02:16;;;;;;;0.82;0.75;;;13.20;99.90;;;;;;5035060;28;20041;-76
2024/03/30 01:04:41;;;;;;;2.50;0.70;;;13.20;99.90;;;;;;5033672;28;20032;-76
2024/03/30 01:07:07;;;;;;;2.80;1.25;;;13.20;99.90;;;;;;5034231;28;20467;-75
2024/03/30 01:09:33;;;;;;;1.45;1.20;;;13.10;99.90;;;;;;5034331;28;20017;-75
2024/03/30 01:11:59;;;;;;;3.15;0.90;;;13.10;99.90;;;;;;5034515;28;20611;-74
2024/03/30 01:14:27;;;;;;;1.33;0.90;;;13.10;99.90;;;;;;5033007;28;20486;-73
2024/03/30 01:16:53;;;;;;;1.45;0.70;;;13.20;99.90;;;;;;5035068;28;20045;-73
2024/03/30 01:19:19;;;;;;;1.20;1.10;;;13.20;99.90;;;;;;5034806;28;20104;-72
2024/03/30 01:21:45;;;;;;;3.97;1.08;;;13.20;99.90;;;;;;5033489;28;20040;-72
2024/03/30 01:24:11;;;;;;;1.23;0.68;;;13.20;99.90;;;;;;5034630;28;20029;-72
2024/03/30 01:26:43;;;;;;;2.45;1.13;;;13.30;99.90;;;;;;5034406;28;20017;-71
2024/03/30 01:29:10;;;;;;;1.27;1.17;;;13.20;99.90;;;;;;5034876;28;20033;-72
2024/03/30 01:31:36;;;;;;;2.08;1.33;;;13.20;99.90;;;;;;5024314;28;20025;-72
2024/03/30 01:34:02;;;;;;;7.05;1.20;;;13.20;99.90;;;;;;5032172;28;20033;-72
2024/03/30 01:36:28;;;;;;;3.70;1.10;;;13.10;99.90;;;;;;5034200;28;20393;-73
2024/03/30 01:38:54;;;;;;;2.75;1.08;;;13.10;99.90;;;;;;5034290;28;20096;-72
2024/03/30 01:41:19;;;;;;;3.97;1.30;;;13.20;99.90;;;;;;5033618;28;20103;-71
2024/03/30 01:43:46;;;;;;;2.25;1.20;;;13.10;99.90;;;;;;5033654;28;20113;-71
2024/03/30 01:46:12;;;;;;;1.98;0.90;;;13.10;99.90;;;;;;5034068;28;20022;-71
2024/03/30 01:48:37;;;;;;;4.25;1.33;;;13.10;99.90;;;;;;5038264;28;20487;-71
2024/03/30 01:51:04;;;;;;;3.65;1.15;;;13.10;99.90;;;;;;5033516;28;20025;-72
2024/03/30 01:53:30;;;;;;;1.95;1.27;;;13.10;99.90;;;;;;5034000;28;20355;-72
2024/03/30 01:55:56;;;;;;;4.28;1.42;;;13.10;99.90;;;;;;5033455;28;20068;-71
2024/03/30 01:58:26;;;;;;;3.20;1.58;;;13.00;99.90;;;;;;5032931;28;20426;-71
2024/03/30 02:00:55;;;;;;;1.70;1.45;;;13.00;99.90;;;;;;5030586;28;20091;-72
2024/03/30 02:03:23;;;;;;;3.75;1.92;;;13.00;99.90;;;;;;5033962;28;20483;-72
2024/03/30 02:05:51;;;;;;;2.75;1.85;;;13.10;99.90;;;;;;5034010;28;20026;-72
2024/03/30 02:08:18;;;;;;;3.80;1.77;;;13.10;99.90;;;;;;5033673;28;20031;-72
2024/03/30 02:10:46;;;;;;;3.47;1.60;;;13.00;99.90;;;;;;5032512;28;20032;-72
2024/03/30 02:13:13;;;;;;;2.58;1.83;;;13.00;99.90;;;;;;5033043;28;20036;-72
2024/03/30 02:15:38;;;;;;;1.83;1.40;;;12.90;99.90;;;;;;5033856;28;20037;-71
2024/03/30 02:18:04;;;;;;;2.92;1.98;;;13.00;99.90;;;;;;5033575;28;20028;-72
2024/03/30 02:20:30;;;;;;;4.13;1.90;;;12.90;99.90;;;;;;5032921;28;20049;-72
2024/03/30 02:22:56;;;;;;;2.38;2.17;;;12.50;99.90;;;;;;5033293;28;20136;-71
2024/03/30 02:25:22;;;;;;;2.28;2.08;;;12.40;99.90;;;;;;5033171;28;20506;-72
2024/03/30 02:27:49;;;;;;;5.28;2.50;;;12.60;99.90;;;;;;5033079;28;20025;-72
2024/03/30 02:30:28;;;;;;;3.30;2.28;;;12.60;99.90;;;;;;5023806;28;20068;-72
2024/03/30 02:32:54;;;;;;;3.15;2.50;;;12.20;99.90;;;;;;5021838;28;20056;-72
2024/03/30 02:35:20;;;;;;;2.15;1.90;;;11.80;99.90;;;;;;5032479;28;20057;-72
2024/03/30 02:37:48;;;;;;;3.20;2.33;;;12.10;99.90;;;;;;5031566;28;20057;-72
2024/03/30 02:40:14;;;;;;;2.83;2.58;;;12.30;99.90;;;;;;5032946;28;20083;-72
2024/03/30 02:42:41;;;;;;;2.90;2.58;;;12.30;99.90;;;;;;5033201;28;20034;-72
2024/03/30 02:45:07;;;;;;;3.30;2.67;;;12.00;99.90;;;;;;5031276;28;20049;-73
2024/03/30 02:47:33;;;;;;;3.17;2.88;;;11.80;99.90;;;;;;5037118;28;20041;-72
2024/03/30 02:49:59;;;;;;;2.55;2.40;;;12.10;99.90;;;;;;5033063;28;20025;-72
2024/03/30 02:52:25;;;;;;;2.78;2.58;;;12.30;99.90;;;;;;5032547;28;20032;-72
2024/03/30 02:54:50;;;;;;;3.95;3.13;;;12.40;99.90;;;;;;5030322;28;20470;-72
2024/03/30 02:57:16;;;;;;;4.60;3.30;;;12.40;99.90;;;;;;5033017;28;20662;-72
2024/03/30 02:59:42;;;;;;;4.00;3.33;;;12.30;99.90;;;;;;5029625;28;20550;-73
2024/03/30 03:02:08;;;;;;;3.83;2.92;;;12.20;99.90;;;;;;5032734;28;20379;-72
2024/03/30 03:04:34;;;;;;;3.55;3.25;;;12.40;99.90;;;;;;5032445;28;20024;-72
2024/03/30 03:06:59;;;;;;;3.30;2.80;;;12.50;99.90;;;;;;5031979;28;20474;-73
2024/03/30 03:09:25;;;;;;;2.80;2.60;;;12.50;99.90;;;;;;5032044;28;20478;-72
2024/03/30 03:11:51;;;;;;;3.30;3.10;;;12.50;99.90;;;;;;5021710;28;20076;-73
2024/03/30 03:14:17;;;;;;;3.90;3.58;;;12.60;99.90;;;;;;5031629;28;20029;-72
2024/03/30 03:16:43;;;;;;;3.63;2.88;;;12.60;99.90;;;;;;5031684;28;20036;-72
2024/03/30 03:19:08;;;;;;;3.80;3.15;;;12.70;99.90;;;;;;5032527;28;20045;-73
2024/03/30 03:21:34;;;;;;;3.08;2.85;;;12.50;99.90;;;;;;5019244;28;20443;-73
2024/03/30 03:24:00;;;;;;;2.88;2.60;;;12.40;99.90;;;;;;5032030;28;20029;-73
2024/03/30 03:26:25;;;;;;;3.38;2.88;;;12.60;99.90;;;;;;5031701;28;20032;-73
2024/03/30 03:28:51;;;;;;;5.03;3.30;;;12.60;99.90;;;;;;5031023;28;20467;-73
2024/03/30 03:31:16;;;;;;;5.50;3.55;;;12.60;99.90;;;;;;5022215;28;20387;-73
2024/03/30 03:33:42;;;;;;;6.10;4.18;;;12.50;99.90;;;;;;5031720;28;20377;-73
2024/03/30 03:36:08;;;;;;;4.93;3.95;;;12.50;99.90;;;;;;5031912;28;20026;-73
2024/03/30 03:38:34;;;;;;;4.43;4.00;;;12.50;99.90;;;;;;5032040;28;20025;-72
2024/03/30 03:40:59;;;;;;;6.70;4.63;;;12.50;99.90;;;;;;5032328;28;20018;-73
2024/03/30 03:43:25;;;;;;;6.00;5.40;;;12.50;99.90;;;;;;5030853;28;20064;-72
2024/03/30 03:45:51;;;;;;;5.45;4.72;;;12.50;99.90;;;;;;5031202;28;20112;-73
2024/03/30 03:48:16;;;;;;;6.28;5.68;;;12.60;99.90;;;;;;5036745;28;20091;-73
2024/03/30 03:50:42;;;;;;;7.00;6.40;;;12.60;99.90;;;;;;5031051;28;20030;-73
2024/03/30 03:53:08;;;;;;;8.00;7.30;;;12.60;99.90;;;;;;5032029;28;20026;-73
2024/03/30 03:55:34;;;;;;;7.88;6.70;;;12.50;99.90;;;;;;5031983;28;20104;-73
2024/03/30 03:58:00;;;;;;;7.53;6.82;;;12.60;99.90;;;;;;5031916;28;20445;-73
2024/03/30 04:00:26;;;;;;;7.43;6.82;;;12.60;99.90;;;;;;5027201;28;20034;-73
2024/03/30 04:02:52;;;;;;;7.60;6.85;;;12.60;99.90;;;;;;5032022;28;20040;-73
2024/03/30 04:05:18;;;;;;;8.30;7.43;;;12.70;99.90;;;;;;5031250;28;20104;-73
2024/03/30 04:07:43;;;;;;;8.90;8.20;;;12.70;99.90;;;;;;5030214;28;20241;-73
2024/03/30 04:10:11;;;;;;;8.07;7.28;;;12.60;99.90;;;;;;5031366;28;20018;-73
2024/03/30 04:12:38;;;;;;;8.90;7.88;;;12.60;99.90;;;;;;5031713;28;20029;-74
2024/03/30 04:15:04;;;;;;;10.20;7.88;;;12.60;99.90;;;;;;5031877;28;20105;-74
2024/03/30 04:17:33;;;;;;;8.65;7.68;;;12.60;99.90;;;;;;5030578;28;20565;-73
2024/03/30 04:19:59;;;;;;;8.45;7.65;;;12.40;99.90;;;;;;5031809;28;20014;-75
2024/03/30 04:22:24;;;;;;;9.13;8.32;;;12.40;99.90;;;;;;5034340;28;20049;-74
2024/03/30 04:24:50;;;;;;;8.43;7.60;;;12.50;99.90;;;;;;5036062;28;20029;-74
2024/03/30 04:27:16;;;;;;;9.57;8.68;;;12.60;99.90;;;;;;5033843;28;20083;-74
2024/03/30 04:29:42;;;;;;;10.68;9.57;;;12.60;99.90;;;;;;5035190;28;20100;-74
2024/03/30 04:32:08;;;;;;;9.45;8.50;;;12.60;99.90;;;;;;5035038;28;20061;-74
2024/03/30 04:34:34;;;;;;;9.95;8.95;;;12.60;99.90;;;;;;5033069;28;20037;-74
2024/03/30 04:37:00;;;;;;;11.77;10.52;;;12.70;99.90;;;;;;5035569;28;20026;-74
2024/03/30 04:39:26;;;;;;;11.98;10.05;;;12.60;99.90;;;;;;5035527;28;20029;-74
2024/03/30 04:41:51;;;;;;;13.50;11.35;;;12.50;99.90;;;;;;5034804;28;20537;-74
2024/03/30 04:44:17;;;;;;;14.13;11.43;;;12.40;99.90;;;;;;5034304;28;20116;-74
2024/03/30 04:46:43;;;;;;;14.25;12.75;;;12.30;99.90;;;;;;5040443;28;20547;-74
2024/03/30 04:49:09;;;;;;;13.85;12.15;;;12.30;99.90;;;;;;5035681;28;20060;-73
2024/03/30 04:51:34;;;;;;;15.18;12.05;;;12.30;99.90;;;;;;5034699;28;20064;-74
2024/03/30 04:54:00;;;;;;;14.10;12.50;;;12.30;99.90;;;;;;5035556;28;20518;-74
2024/03/30 04:56:26;;;;;;;16.25;13.02;;;12.30;99.90;;;;;;5035613;28;20059;-74
2024/03/30 04:58:51;;;;;;;14.13;12.57;;;12.30;99.90;;;;;;5035457;28;20018;-74
2024/03/30 05:01:17;;;;;;;14.68;13.15;;;12.30;99.90;;;;;;5034407;28;20032;-74
2024/03/30 05:03:42;;;;;;;14.77;13.27;;;12.30;99.90;;;;;;5034971;28;20363;-73
2024/03/30 05:06:08;;;;;;;15.88;14.18;;;12.30;99.90;;;;;;5034964;28;20491;-74
2024/03/30 05:08:34;;;;;;;18.92;16.00;;;12.30;99.90;;;;;;5034941;28;20029;-73
2024/03/30 05:11:00;;;;;;;15.77;13.73;;;12.20;99.90;;;;;;5031682;28;20165;-73
2024/03/30 05:13:26;;;;;;;17.45;14.77;;;12.30;99.90;;;;;;5022868;28;20041;-73
2024/03/30 05:15:52;;;;;;;17.02;15.25;;;12.30;99.90;;;;;;5033560;28;20379;-73
2024/03/30 05:18:20;;;;;;;16.48;14.77;;;12.30;99.90;;;;;;5034034;28;20496;-74
2024/03/30 05:20:58;;;;;;;20.20;18.13;;;12.30;99.90;;;;;;5027719;28;20103;-74
2024/03/30 05:23:28;;;;;;;15.65;13.98;;;12.40;99.90;;;;;;5032129;28;20033;-74
2024/03/30 05:25:55;;;;;;;16.73;14.85;;;12.30;99.90;;;;;;5034941;28;20106;-74
2024/03/30 05:28:23;;;;;;;19.42;16.15;;;12.30;99.90;;;;;;5034821;28;20108;-74
2024/03/30 05:30:50;;;;;;;17.23;14.45;;;12.30;99.90;;;;;;5033739;28;20038;-74
2024/03/30 05:33:18;;;;;;;17.25;14.45;;;12.30;99.90;;;;;;5033269;28;20032;-74
2024/03/30 05:35:50;;;;;;;21.13;18.00;;;12.30;99.90;;;;;;5017333;28;20033;-74
2024/03/30 05:38:16;;;;;;;20.08;16.38;;;12.30;99.90;;;;;;5015867;28;20106;-73
2024/03/30 05:40:43;;;;;;;18.92;15.70;;;12.30;99.90;;;;;;5025412;28;20021;-73
2024/03/30 05:43:10;;;;;;;19.58;17.08;;;12.30;99.90;;;;;;5027731;28;20048;-73
2024/03/30 05:45:40;;;;;;;20.48;17.45;;;12.20;99.90;;;;;;5027498;28;20044;-73
2024/03/30 05:48:06;;;;;;;18.63;16.65;;;12.30;99.90;;;;;;5026721;28;20076;-73
2024/03/30 05:50:32;;;;;;;25.33;19.67;;;12.20;99.90;;;;;;5027669;28;20028;-73
2024/03/30 05:52:59;;;;;;;22.75;18.45;;;12.20;99.90;;;;;;5025946;28;20080;-73
2024/03/30 05:55:25;;;;;;;25.13;20.30;;;12.10;99.90;;;;;;5026135;28;20022;-73
2024/03/30 05:57:53;;;;;;;25.73;19.23;;;12.00;99.90;;;;;;5026457;28;20105;-74
2024/03/30 06:00:20;;;;;;;28.20;22.13;;;12.10;99.90;;;;;;5027591;28;20029;-74
2024/03/30 06:02:48;;;;;;;26.20;20.15;;;12.10;99.90;;;;;;5026226;28;20112;-73
2024/03/30 06:05:14;;;;;;;29.83;21.48;;;12.10;99.90;;;;;;5027497;28;20018;-73
2024/03/30 06:07:41;;;;;;;25.73;19.92;;;12.00;99.90;;;;;;5025806;28;20044;-73
2024/03/30 06:10:08;;;;;;;28.70;22.33;;;12.00;99.90;;;;;;5027038;28;20037;-74
2024/03/30 06:12:35;;;;;;;30.10;21.95;;;12.10;99.90;;;;;;5025921;28;20033;-74
2024/03/30 06:15:02;;;;;;;24.88;21.20;;;12.10;99.90;;;;;;5025985;28;20482;-73
2024/03/30 06:17:27;;;;;;;31.08;22.38;;;12.20;99.90;;;;;;5026495;28;20029;-73
2024/03/30 06:19:54;;;;;;;27.98;21.90;;;12.20;99.90;;;;;;5027558;28;20441;-73
2024/03/30 06:22:22;;;;;;;31.67;25.65;;;12.10;99.90;;;;;;5026976;28;20375;-73
2024/03/30 06:24:47;;;;;;;27.38;22.98;;;12.20;99.90;;;;;;5026226;28;20079;-73
2024/03/30 06:27:13;;;;;;;33.08;24.63;;;12.30;99.90;;;;;;5025660;28;20418;-73
2024/03/30 06:29:39;;;;;;;42.28;28.23;;;12.30;99.90;;;;;;5025985;28;20446;-74
2024/03/30 06:32:05;;;;;;;34.72;26.23;;;12.30;99.90;;;;;;5025877;28;20033;-74
2024/03/30 06:34:32;;;;;;;36.13;26.45;;;12.30;99.90;;;;;;5026830;28;20033;-74
2024/03/30 06:36:58;;;;;;;36.47;23.88;;;12.30;99.90;;;;;;5026125;28;20076;-74
2024/03/30 06:39:24;;;;;;;33.00;25.80;;;12.30;99.90;;;;;;5025183;28;20483;-75
2024/03/30 06:44:34;;;;;;;35.47;25.55;;;12.30;99.90;;;;;;5023301;28;20115;-74
2024/03/30 06:47:00;;;;;;;40.95;28.63;;;12.30;99.90;;;;;;5025958;28;20437;-74
2024/03/30 06:49:25;;;;;;;40.38;29.13;;;12.20;99.90;;;;;;5025386;28;20039;-74
2024/03/30 06:51:51;;;;;;;42.70;28.85;;;12.10;99.90;;;;;;5025118;28;20033;-75
2024/03/30 06:54:17;;;;;;;43.25;29.95;;;12.10;99.90;;;;;;5025032;28;20033;-74
2024/03/30 06:56:43;;;;;;;43.90;30.58;;;12.10;99.90;;;;;;5026111;28;20477;-74
2024/03/30 06:59:09;;;;;;;50.05;32.10;;;12.10;99.90;;;;;;5026062;28;20394;-74
2024/03/30 07:01:35;;;;;;;39.63;29.17;;;12.10;99.90;;;;;;5024954;28;20030;-74
2024/03/30 07:04:01;;;;;;;43.55;29.85;;;12.10;99.90;;;;;;5025136;28;20026;-74
2024/03/30 07:06:28;;;;;;;45.05;30.58;;;12.20;99.90;;;;;;5023866;28;20034;-74
2024/03/30 07:08:57;;;;;;;43.42;30.77;;;12.20;99.90;;;;;;5024251;28;20029;-74
2024/03/30 07:11:23;;;;;;;49.50;33.65;;;12.10;99.90;;;;;;5025417;28;21207;-74
2024/03/30 07:13:49;;;;;;;46.25;31.77;;;12.10;99.90;;;;;;5022556;28;20132;-74
2024/03/30 07:16:15;;;;;;;48.55;33.30;;;12.10;99.90;;;;;;5025255;28;20506;-74
2024/03/30 07:18:43;;;;;;;49.08;31.08;;;12.10;99.90;;;;;;5024471;28;20028;-74
2024/03/30 07:21:08;;;;;;;49.67;31.90;;;12.20;99.90;;;;;;5025860;28;20103;-74
2024/03/30 07:23:34;;;;;;;46.42;31.63;;;12.30;99.90;;;;;;5024967;28;20033;-74
2024/03/30 07:26:04;;;;;;;47.22;31.90;;;12.30;99.90;;;;;;5022514;28;20092;-74
2024/03/30 07:28:30;;;;;;;43.38;30.90;;;12.40;99.90;;;;;;5022507;28;20037;-74
2024/03/30 07:31:00;;;;;;;47.58;32.22;;;12.50;99.90;;;;;;5025961;28;20037;-75
2024/03/30 07:33:27;;;;;;;45.92;32.50;;;12.50;99.90;;;;;;5024279;28;20036;-75
2024/03/30 07:35:54;;;;;;;42.42;28.88;;;12.60;99.90;;;;;;5025277;28;20083;-74
2024/03/30 07:38:24;;;;;;;46.42;30.42;;;12.70;99.90;;;;;;5024412;28;20025;-74
2024/03/30 07:40:50;;;;;;;46.10;31.80;;;12.70;99.90;;;;;;5024976;28;20731;-75
2024/03/30 07:43:16;;;;;;;46.15;32.08;;;12.80;99.90;;;;;;5025551;28;20037;-75
2024/03/30 07:45:42;;;;;;;54.60;34.97;;;12.80;99.90;;;;;;5025448;28;20473;-74
2024/03/30 07:48:08;;;;;;;44.45;31.40;;;12.70;99.90;;;;;;5025298;28;20036;-74
2024/03/30 07:50:33;;;;;;;47.47;32.65;;;12.70;99.90;;;;;;5025278;28;20489;-74
2024/03/30 07:52:59;;;;;;;44.63;30.40;;;12.70;99.90;;;;;;5022088;28;21061;-75
2024/03/30 07:55:25;;;;;;;42.92;30.63;;;12.70;99.90;;;;;;5024541;28;20578;-75
2024/03/30 07:57:50;;;;;;;48.15;31.40;;;12.80;99.90;;;;;;5024445;28;20029;-75
2024/03/30 08:00:16;;;;;;;42.90;29.75;;;12.80;99.90;;;;;;5024389;28;20037;-75
2024/03/30 08:02:42;;;;;;;43.72;32.83;;;12.90;99.90;;;;;;5023272;28;20064;-75
2024/03/30 08:05:08;;;;;;;42.58;30.25;;;13.00;99.90;;;;;;5024185;28;20022;-74
2024/03/30 08:07:33;;;;;;;40.75;28.80;;;13.00;99.90;;;;;;5023878;28;20037;-75
2024/03/30 08:09:59;;;;;;;46.33;29.05;;;13.00;99.90;;;;;;5024000;28;20021;-75
2024/03/30 08:12:25;;;;;;;40.92;28.67;;;12.90;99.90;;;;;;5024972;28;20031;-75
2024/03/30 08:14:50;;;;;;;42.85;28.95;;;12.90;99.90;;;;;;5025452;28;20021;-75
2024/03/30 08:17:16;;;;;;;44.08;30.33;;;13.00;99.90;;;;;;5024718;28;20386;-74
2024/03/30 08:19:42;;;;;;;42.75;27.90;;;13.20;99.90;;;;;;5024841;28;20393;-75
2024/03/30 08:22:07;;;;;;;38.40;27.73;;;13.30;99.90;;;;;;5025462;28;20053;-75
2024/03/30 08:24:33;;;;;;;42.75;29.80;;;13.40;99.90;;;;;;5024103;28;20368;-75
2024/03/30 08:26:59;;;;;;;38.75;27.58;;;13.50;99.90;;;;;;5024786;28;20021;-75
2024/03/30 08:29:24;;;;;;;33.88;25.65;;;13.70;99.90;;;;;;5024855;28;20026;-75
2024/03/30 08:31:50;;;;;;;32.67;24.50;;;13.80;99.90;;;;;;5025037;28;20421;-75
2024/03/30 08:34:16;;;;;;;33.80;25.33;;;13.70;99.90;;;;;;5025136;28;20109;-76
2024/03/30 08:36:42;;;;;;;35.85;26.63;;;13.70;99.90;;;;;;5023181;28;20021;-75
2024/03/30 08:39:07;;;;;;;35.00;24.05;;;13.70;99.90;;;;;;5024321;28;20040;-75
2024/03/30 08:41:33;;;;;;;31.63;23.65;;;13.70;99.90;;;;;;5025038;28;20493;-76
2024/03/30 08:44:04;;;;;;;31.58;23.75;;;13.70;99.90;;;;;;5050717;28;20033;-75
2024/03/30 08:46:30;;;;;;;32.08;22.58;;;13.70;99.90;;;;;;5023881;28;20047;-75
2024/03/30 08:49:05;;;;;;;33.97;24.58;;;13.70;99.90;;;;;;5024576;28;20467;-75
2024/03/30 08:51:31;;;;;;;34.90;22.45;;;13.70;99.90;;;;;;5023747;28;20109;-75
2024/03/30 08:54:06;;;;;;;33.90;22.20;;;14.00;99.90;;;;;;5023978;28;20105;-75
2024/03/30 08:56:33;;;;;;;29.50;21.08;;;14.00;99.90;;;;;;5024047;28;20152;-76
2024/03/30 08:58:59;;;;;;;29.75;21.10;;;14.20;99.90;;;;;;5024134;28;20022;-75
2024/03/30 09:01:25;;;;;;;32.67;21.15;;;14.10;99.90;;;;;;5023455;28;20104;-75
2024/03/30 09:03:51;;;;;;;28.23;20.35;;;14.10;99.90;;;;;;5025170;28;20038;-75
2024/03/30 09:06:17;;;;;;;31.65;21.50;;;14.20;99.90;;;;;;5023281;28;20049;-76
2024/03/30 09:08:44;;;;;;;31.45;20.45;;;14.20;99.90;;;;;;5027043;28;20048;-76
2024/03/30 09:11:10;;;;;;;32.17;19.80;;;14.10;99.90;;;;;;5027091;28;20022;-76
2024/03/30 09:13:37;;;;;;;36.28;19.63;;;14.20;99.90;;;;;;5028519;28;20100;-76
2024/03/30 09:16:03;;;;;;;29.80;20.13;;;14.10;99.90;;;;;;5028721;28;20087;-76
2024/03/30 09:18:29;;;;;;;30.77;20.48;;;14.10;99.90;;;;;;5026623;28;20095;-75
2024/03/30 09:20:56;;;;;;;36.22;20.15;;;14.10;99.90;;;;;;5027199;28;20152;-76
2024/03/30 09:23:21;;;;;;;34.50;20.73;;;14.20;99.90;;;;;;5028482;28;20038;-76
2024/03/30 09:25:47;;;;;;;30.88;18.25;;;14.20;99.90;;;;;;5027742;28;20029;-76
2024/03/30 09:28:13;;;;;;;28.55;17.48;;;14.20;99.90;;;;;;5028034;28;20509;-76
2024/03/30 09:30:38;;;;;;;30.08;16.55;;;14.10;99.90;;;;;;5027410;28;20049;-76
2024/03/30 09:33:04;;;;;;;29.58;17.23;;;14.20;99.90;;;;;;5028229;28;20576;-76
2024/03/30 09:35:30;;;;;;;30.90;16.08;;;14.30;99.90;;;;;;5027559;28;20460;-76
2024/03/30 09:37:55;;;;;;;30.85;17.73;;;14.40;99.90;;;;;;5027605;28;20018;-75
2024/03/30 09:40:21;;;;;;;29.63;16.45;;;14.30;99.90;;;;;;5027230;28;20025;-76
2024/03/30 09:42:49;;;;;;;26.65;16.17;;;14.40;99.90;;;;;;5027904;28;20037;-76
2024/03/30 09:45:17;;;;;;;28.95;16.65;;;14.50;99.90;;;;;;5027372;28;20025;-77
2024/03/30 09:47:46;;;;;;;28.60;16.83;;;14.50;99.90;;;;;;5026178;28;20119;-77
2024/03/30 09:50:13;;;;;;;37.55;16.10;;;14.50;99.90;;;;;;5026921;28;20114;-76
2024/03/30 09:52:39;;;;;;;29.02;15.60;;;14.50;99.90;;;;;;5027165;28;20025;-77
2024/03/30 09:55:16;;;;;;;30.02;15.25;;;14.50;99.90;;;;;;5026579;28;20021;-76
2024/03/30 09:57:50;;;;;;;24.90;13.85;;;14.50;99.90;;;;;;5026928;28;20032;-76
2024/03/30 10:00:17;;;;;;;23.88;12.63;;;14.60;99.90;;;;;;5027676;28;20480;-77
2024/03/30 10:02:45;;;;;;;29.83;11.50;;;14.70;99.90;;;;;;5026743;28;20049;-77
2024/03/30 10:05:12;;;;;;;26.98;12.35;;;14.70;99.90;;;;;;5027181;28;20013;-77
2024/03/30 10:08:01;;;;;;;28.25;11.13;;;14.80;99.90;;;;;;5026888;28;20021;-77
2024/03/30 10:10:29;;;;;;;30.92;10.85;;;14.80;99.90;;;;;;5026873;28;20029;-77
2024/03/30 10:13:00;;;;;;;30.70;10.25;;;14.90;99.90;;;;;;5027582;28;20017;-77
2024/03/30 10:15:37;;;;;;;34.17;9.77;;;14.90;99.90;;;;;;5026132;28;20554;-78
2024/03/30 10:18:03;;;;;;;36.33;8.77;;;14.80;99.90;;;;;;5027030;28;20037;-77
2024/03/30 10:20:30;;;;;;;27.80;8.95;;;14.90;99.90;;;;;;5025819;28;20030;-77
2024/03/30 10:22:56;;;;;;;29.27;8.45;;;15.00;99.90;;;;;;5026918;28;20037;-76
2024/03/30 10:25:24;;;;;;;32.75;8.93;;;15.10;99.90;;;;;;5027492;28;20029;-77
2024/03/30 10:27:49;;;;;;;26.85;8.48;;;15.10;99.90;;;;;;5025836;28;20047;-77
2024/03/30 10:30:16;;;;;;;28.98;8.57;;;15.20;99.90;;;;;;5027378;28;20033;-77
2024/03/30 10:32:44;;;;;;;27.35;8.20;;;15.30;99.90;;;;;;5026017;28;20013;-77
2024/03/30 10:35:10;;;;;;;30.10;7.68;;;15.40;99.90;;;;;;5026152;28;20025;-77
2024/03/30 10:37:36;;;;;;;27.02;7.13;;;15.40;99.90;;;;;;5026376;28;20033;-77
2024/03/30 10:40:09;;;;;;;30.20;7.25;;;15.50;99.90;;;;;;5026658;28;20020;-77
2024/03/30 10:42:35;;;;;;;;;;;15.50;99.90;;;;;;5027113;28;20075;-77
2024/03/30 10:45:01;;;;;;;35.63;6.82;;;15.60;99.90;;;;;;5026773;28;19944;-75
2024/03/30 10:47:30;;;;;;;29.25;6.30;;;15.60;99.90;;;;;;5025499;28;20037;-76
2024/03/30 10:50:00;;;;;;;25.50;7.20;;;15.70;99.90;;;;;;5026627;28;20080;-76
2024/03/30 10:52:26;;;;;;;28.17;7.13;;;15.80;99.90;;;;;;5022667;28;20727;-77
2024/03/30 10:54:53;;;;;;;27.25;6.45;;;15.80;99.90;;;;;;5025174;28;20374;-77
2024/03/30 10:57:19;;;;;;;38.17;6.85;;;15.90;99.90;;;;;;5024982;28;20466;-77
2024/03/30 10:59:46;;;;;;;27.95;6.47;;;15.90;99.90;;;;;;5026077;28;20025;-76
2024/03/30 11:02:19;;;;;;;23.30;5.10;;;16.00;99.90;;;;;;5022001;28;20038;-78
2024/03/30 11:04:45;;;;;;;28.05;4.78;;;15.90;99.90;;;;;;5024527;28;20025;-77
2024/03/30 11:07:13;;;;;;;25.60;5.43;;;15.90;99.90;;;;;;5025844;28;20028;-77
2024/03/30 11:09:41;;;;;;;30.13;5.50;;;15.70;99.90;;;;;;5023094;28;20032;-79
2024/03/30 11:12:12;;;;;;;25.25;5.97;;;15.50;99.90;;;;;;5023072;28;20371;-77
2024/03/30 11:14:38;;;;;;;28.52;6.00;;;15.40;99.90;;;;;;5025461;28;20427;-77
2024/03/30 11:17:45;;;;;;;30.05;6.10;;;15.40;99.90;;;;;;5021121;28;20104;-77
2024/03/30 11:20:17;;;;;;;30.25;5.55;;;15.40;99.90;;;;;;5042889;28;20033;-76
2024/03/30 11:22:42;;;;;;;25.17;6.30;;;15.40;99.90;;;;;;5023434;28;20041;-76
2024/03/30 11:25:12;;;;;;;25.98;5.43;;;15.30;99.90;;;;;;5024985;28;20117;-77
2024/03/30 11:27:54;;;;;;;26.30;5.95;;;15.30;99.90;;;;;;5022403;28;20025;-76
2024/03/30 11:30:35;;;;;;;27.48;6.97;;;15.30;99.90;;;;;;5024709;28;20144;-78
2024/03/30 11:33:08;;;;;;;18.90;5.57;;;15.40;99.90;;;;;;5025369;28;20038;-78
2024/03/30 11:35:45;;;;;;;24.17;6.35;;;15.50;99.90;;;;;;5024566;28;20029;-78
2024/03/30 11:38:11;;;;;;;17.42;5.35;;;15.60;99.90;;;;;;5024298;28;20021;-76
2024/03/30 11:40:44;;;;;;;14.77;5.72;;;15.60;99.90;;;;;;5025659;28;20108;-76
2024/03/30 11:43:20;;;;;;;18.92;5.78;;;15.70;99.90;;;;;;5024043;28;20033;-76
2024/03/30 11:45:47;;;;;;;14.63;6.65;;;15.70;99.90;;;;;;5024432;28;20113;-76
2024/03/30 11:48:13;;;;;;;27.45;6.82;;;15.90;99.90;;;;;;5022694;28;20043;-77
2024/03/30 11:50:39;;;;;;;18.42;7.00;;;15.80;99.90;;;;;;5024230;28;20040;-77
2024/03/30 11:53:16;;;;;;;16.95;6.97;;;15.80;99.90;;;;;;5025270;28;20029;-75
2024/03/30 11:55:46;;;;;;;14.50;6.45;;;15.70;99.90;;;;;;5024811;28;21154;-78
2024/03/30 11:58:26;;;;;;;16.25;6.72;;;15.60;99.90;;;;;;5024430;28;20017;-77
2024/03/30 12:01:00;;;;;;;18.48;7.68;;;15.70;99.90;;;;;;5024727;28;20505;-76
2024/03/30 12:03:28;;;;;;;16.65;7.68;;;15.80;99.90;;;;;;5023807;28;20038;-76
2024/03/30 12:05:55;;;;;;;16.55;6.30;;;15.80;99.90;;;;;;5023030;28;20113;-76
2024/03/30 12:08:23;;;;;;;17.17;7.47;;;15.80;99.90;;;;;;5022995;28;20041;-75
2024/03/30 12:11:01;;;;;;;15.25;8.35;;;15.80;99.90;;;;;;5024160;28;20512;-78
2024/03/30 12:13:29;;;;;;;14.15;8.77;;;15.60;99.90;;;;;;5023859;28;20105;-80
2024/03/30 12:15:59;;;;;;;14.68;8.02;;;15.50;99.90;;;;;;5023191;28;20029;-81
2024/03/30 12:18:25;;;;;;;16.65;7.82;;;15.50;99.90;;;;;;5023260;28;20025;-79
2024/03/30 12:20:51;;;;;;;9.68;6.85;;;15.50;99.90;;;;;;5023574;28;20044;-79
2024/03/30 12:23:21;;;;;;;11.23;6.97;;;15.40;99.90;;;;;;5023413;28;20394;-80
2024/03/30 12:25:48;;;;;;;10.73;7.20;;;15.40;99.90;;;;;;5024872;28;20053;-78
2024/03/30 12:28:14;;;;;;;10.77;6.82;;;15.30;99.90;;;;;;5021909;28;20089;-78
2024/03/30 12:30:42;;;;;;;12.85;7.28;;;15.10;99.90;;;;;;5023104;28;20025;-78
2024/03/30 12:33:08;;;;;;;10.93;8.73;;;15.10;99.90;;;;;;5023091;28;20021;-79
2024/03/30 12:35:34;;;;;;;11.00;8.50;;;15.00;99.90;;;;;;5024484;28;20490;-80
2024/03/30 12:38:01;;;;;;;14.00;7.45;;;14.90;99.90;;;;;;5022995;28;20026;-79